HKNW/WIL METAR and TAF weather

Enter ICAO airport designator
Station Type Date Time Source
HKNW METAR 2021/04/17 03:00 UTC NOAA

HKNW 170300Z 00000KT 9999 BKN018 18/16 Q1020


Station Type Date Time Source
HKNW Decoded METAR 2021/04/17 03:00 UTC NOAA

Nairobi / Wilson, Kenya (HKNW) 01-19S 036-49E 1679M
Apr 16, 2021 - 11:00 PM EDT / 2021.04.17 0300 UTC
Wind: Calm:0
Visibility: greater than 7 mile(s):0
Sky conditions: mostly cloudy
Temperature: 64 F (18 C)
Dew Point: 60 F (16 C)
Relative Humidity: 88%
Pressure (altimeter): 30.12 in. Hg (1020 hPa)
ob: HKNW 170300Z 00000KT 9999 BKN018 18/16 Q1020
cycle: 3

Station Type Date Time Source
HKNW TAF 2021/04/16 06:21 UTC NOAA

TAF TAF HKNW 160500Z 1606/1706 07010KT 9999 FEW024CB SCT025
TEMPO 1616/1620 -RA BKN017
BECMG 1701/1704 NSW SCT008 BKN017

Example: see airport list